Time,TemperatureF,DewpointF,PressureIn,WindDirection,WindDirectionDegrees,WindSpeedMPH,WindSpeedGustMPH,Humidity,HourlyPrecipIn,Conditions,Clouds,dailyrainin,SoftwareType,DateUTC
2013-01-06 00:01:00,23.3,19.0,30.12,East,99,0.0,-999.0,83,-99.99,,,0.01,weatherlink.com 1.10,2013-01-06 05:01:00,
2013-01-06 00:16:00,23.8,19.0,30.11,East,99,0.0,-999.0,83,-99.99,,,0.01,weatherlink.com 1.10,2013-01-06 05:16:00,
2013-01-06 00:31:00,23.9,20.0,30.10,East,99,0.0,-999.0,83,-99.99,,,0.00,weatherlink.com 1.10,2013-01-06 05:31:00,
2013-01-06 00:46:00,24.1,20.0,30.08,East,99,0.0,-999.0,83,-99.99,,,0.00,weatherlink.com 1.10,2013-01-06 05:46:00,
2013-01-06 01:01:00,24.2,20.0,30.09,East,99,0.0,-999.0,83,-99.99,,,0.00,weatherlink.com 1.10,2013-01-06 06:01:00,
2013-01-06 01:16:00,24.5,20.0,30.09,East,99,0.0,-999.0,84,-99.99,,,0.00,weatherlink.com 1.10,2013-01-06 06:16:00,
2013-01-06 01:31:00,25.0,21.0,30.10,East,99,0.0,-999.0,83,-99.99,,,0.00,weatherlink.com 1.10,2013-01-06 06:31:00,
2013-01-06 02:01:00,25.6,21.0,30.12,East,99,0.0,-999.0,83,-99.99,,,0.00,weatherlink.com 1.10,2013-01-06 07:01:00,
2013-01-06 02:16:00,25.8,21.0,30.13,East,99,0.0,-999.0,82,-99.99,,,0.00,weatherlink.com 1.10,2013-01-06 07:16:00,
2013-01-06 02:31:00,26.3,21.0,30.13,East,99,0.0,-999.0,81,-99.99,,,0.00,weatherlink.com 1.10,2013-01-06 07:31:00,
2013-01-06 02:46:00,26.4,21.0,30.11,East,99,1.0,-999.0,81,-99.99,,,0.00,weatherlink.com 1.10,2013-01-06 07:46:00,
2013-01-06 03:01:00,26.7,21.0,30.09,East,99,0.0,-999.0,80,-99.99,,,0.00,weatherlink.com 1.10,2013-01-06 08:01:00,
2013-01-06 03:16:00,27.0,22.0,30.08,East,99,0.0,-999.0,80,-99.99,,,0.00,weatherlink.com 1.10,2013-01-06 08:16:00,
2013-01-06 03:31:00,27.0,21.0,30.08,East,99,0.0,-999.0,79,-99.99,,,0.00,weatherlink.com 1.10,2013-01-06 08:31:00,
2013-01-06 03:46:00,27.3,22.0,30.07,East,99,0.0,-999.0,79,-99.99,,,0.00,weatherlink.com 1.10,2013-01-06 08:46:00,
2013-01-06 04:01:00,27.5,22.0,30.07,East,99,0.0,-999.0,79,-99.99,,,0.00,weatherlink.com 1.10,2013-01-06 09:01:00,
2013-01-06 04:16:00,27.6,22.0,30.06,East,99,0.0,-999.0,78,-99.99,,,0.00,weatherlink.com 1.10,2013-01-06 09:16:00,
2013-01-06 04:31:00,27.6,22.0,30.04,East,99,0.0,-999.0,79,-99.99,,,0.00,weatherlink.com 1.10,2013-01-06 09:31:00,
2013-01-06 04:46:00,27.6,22.0,30.03,SW,223,0.0,-999.0,79,-99.99,,,0.00,weatherlink.com 1.10,2013-01-06 09:46:00,
2013-01-06 05:01:00,27.9,22.0,30.03,WNW,295,0.0,-999.0,79,-99.99,,,0.00,weatherlink.com 1.10,2013-01-06 10:01:00,
2013-01-06 05:16:00,28.1,22.0,30.04,West,267,0.0,-999.0,77,-99.99,,,0.00,weatherlink.com 1.10,2013-01-06 10:16:00,
2013-01-06 05:31:00,28.2,22.0,30.03,West,267,0.0,-999.0,78,-99.99,,,0.00,weatherlink.com 1.10,2013-01-06 10:31:00,
2013-01-06 05:46:00,28.2,23.0,30.02,West,267,1.0,-999.0,80,-99.99,,,0.00,weatherlink.com 1.10,2013-01-06 10:46:00,
2013-01-06 06:01:00,28.1,24.0,30.02,West,267,0.0,-999.0,83,-99.99,,,0.00,weatherlink.com 1.10,2013-01-06 11:01:00,
2013-01-06 06:16:00,28.2,24.0,30.02,West,267,0.0,-999.0,84,-99.99,,,0.00,weatherlink.com 1.10,2013-01-06 11:16:00,
2013-01-06 06:31:00,28.2,25.0,30.02,West,267,0.0,-999.0,86,-99.99,,,0.00,weatherlink.com 1.10,2013-01-06 11:31:00,
2013-01-06 06:47:00,28.4,25.0,30.02,WSW,253,2.0,-999.0,87,-99.99,,,0.00,weatherlink.com 1.10,2013-01-06 11:47:00,
2013-01-06 07:02:00,28.8,26.0,30.00,SW,235,0.0,-999.0,88,-99.99,,,0.00,weatherlink.com 1.10,2013-01-06 12:02:00,
2013-01-06 07:17:00,29.1,26.0,30.00,WSW,239,0.0,-999.0,89,-99.99,,,0.00,weatherlink.com 1.10,2013-01-06 12:17:00,
2013-01-06 07:32:00,29.4,27.0,30.00,WSW,245,0.0,-999.0,89,-99.99,,,0.00,weatherlink.com 1.10,2013-01-06 12:32:00,
2013-01-06 07:47:00,30.0,28.0,30.00,WSW,239,0.0,-999.0,90,-99.99,,,0.00,weatherlink.com 1.10,2013-01-06 12:47:00,
2013-01-06 08:02:00,30.4,28.0,30.00,SW,236,1.0,-999.0,90,-99.99,,,0.00,weatherlink.com 1.10,2013-01-06 13:02:00,
2013-01-06 08:17:00,31.3,29.0,30.00,West,260,0.0,-999.0,91,-99.99,,,0.00,weatherlink.com 1.10,2013-01-06 13:17:00,
2013-01-06 08:32:00,31.6,29.0,29.99,NNW,329,0.0,-999.0,91,-99.99,,,0.00,weatherlink.com 1.10,2013-01-06 13:32:00,
2013-01-06 08:47:00,31.9,30.0,29.99,West,259,0.0,-999.0,91,-99.99,,,0.00,weatherlink.com 1.10,2013-01-06 13:47:00,
2013-01-06 09:02:00,32.4,30.0,29.99,NW,304,0.0,-999.0,91,-99.99,,,0.00,weatherlink.com 1.10,2013-01-06 14:02:00,
2013-01-06 09:17:00,32.8,31.0,29.99,SW,223,0.0,-999.0,91,-99.99,,,0.01,weatherlink.com 1.10,2013-01-06 14:17:00,
2013-01-06 09:32:00,33.1,31.0,29.99,West,259,0.0,-999.0,91,-99.99,,,0.01,weatherlink.com 1.10,2013-01-06 14:32:00,
2013-01-06 09:47:00,34.6,32.0,29.99,West,266,0.0,-999.0,91,-99.99,,,0.01,weatherlink.com 1.10,2013-01-06 14:47:00,
2013-01-06 10:02:00,35.3,32.0,29.99,WNW,286,3.0,-999.0,89,-99.99,,,0.02,weatherlink.com 1.10,2013-01-06 15:02:00,
2013-01-06 10:17:00,36.0,33.0,29.98,SW,218,0.0,-999.0,87,-99.99,,,0.03,weatherlink.com 1.10,2013-01-06 15:17:00,
2013-01-06 10:32:00,36.6,32.0,29.96,South,173,2.0,-999.0,83,-99.99,,,0.03,weatherlink.com 1.10,2013-01-06 15:32:00,
2013-01-06 10:47:00,37.3,31.0,29.96,West,277,6.0,-999.0,78,-99.99,,,0.03,weatherlink.com 1.10,2013-01-06 15:47:00,
2013-01-06 11:02:00,37.9,31.0,29.95,WNW,293,0.0,-999.0,75,-99.99,,,0.03,weatherlink.com 1.10,2013-01-06 16:02:00,
2013-01-06 11:17:00,38.5,31.0,29.93,SW,214,4.0,-999.0,73,-99.99,,,0.03,weatherlink.com 1.10,2013-01-06 16:17:00,
2013-01-06 11:32:00,38.9,30.0,29.92,NW,307,3.0,-999.0,71,-99.99,,,0.03,weatherlink.com 1.10,2013-01-06 16:32:00,
2013-01-06 11:47:00,38.9,30.0,29.91,West,281,0.0,-999.0,71,-99.99,,,0.03,weatherlink.com 1.10,2013-01-06 16:47:00,
2013-01-06 12:02:00,38.2,30.0,29.90,NNW,343,5.0,-999.0,72,-99.99,,,0.03,weatherlink.com 1.10,2013-01-06 17:02:00,
2013-01-06 12:17:00,38.3,30.0,29.89,NNE,19,6.0,-999.0,72,-99.99,,,0.03,weatherlink.com 1.10,2013-01-06 17:17:00,
2013-01-06 12:32:00,38.5,30.0,29.88,SE,146,6.0,-999.0,72,-99.99,,,0.03,weatherlink.com 1.10,2013-01-06 17:32:00,
2013-01-06 12:47:00,38.3,30.0,29.88,NE,43,2.0,-999.0,73,-99.99,,,0.03,weatherlink.com 1.10,2013-01-06 17:47:00,
2013-01-06 13:02:00,38.3,30.0,29.87,West,267,6.0,-999.0,73,-99.99,,,0.03,weatherlink.com 1.10,2013-01-06 18:02:00,
2013-01-06 13:17:00,39.5,32.0,29.87,ESE,120,3.0,-999.0,73,-99.99,,,0.03,weatherlink.com 1.10,2013-01-06 18:17:00,
2013-01-06 13:32:00,40.5,31.0,29.87,NW,312,3.0,-999.0,69,-99.99,,,0.03,weatherlink.com 1.10,2013-01-06 18:32:00,
2013-01-06 13:47:00,40.1,30.0,29.87,WNW,287,2.0,-999.0,68,-99.99,,,0.03,weatherlink.com 1.10,2013-01-06 18:47:00,
2013-01-06 14:02:00,40.9,31.0,29.87,NNE,19,2.0,-999.0,67,-99.99,,,0.03,weatherlink.com 1.10,2013-01-06 19:02:00,
2013-01-06 14:17:00,40.9,31.0,29.87,North,-999,-999.0,-999.0,67,-99.99,,,0.03,weatherlink.com 1.10,2013-01-06 19:17:00,
2013-01-06 14:32:00,-999.0,-99.9,29.87,North,-999,-999.0,-999.0,-999,-99.99,,,0.03,weatherlink.com 1.10,2013-01-06 19:32:00,
2013-01-06 14:47:00,-999.0,-99.9,29.87,North,-999,-999.0,-999.0,-999,-99.99,,,0.03,weatherlink.com 1.10,2013-01-06 19:47:00,
2013-01-06 15:02:00,-999.0,-99.9,29.86,North,-999,-999.0,-999.0,-999,-99.99,,,0.03,weatherlink.com 1.10,2013-01-06 20:02:00,
2013-01-06 15:17:00,-999.0,-99.9,29.85,North,-999,-999.0,-999.0,-999,-99.99,,,0.03,weatherlink.com 1.10,2013-01-06 20:17:00,
2013-01-06 15:33:00,40.1,29.0,29.85,NE,43,2.0,-999.0,66,-99.99,,,0.03,weatherlink.com 1.10,2013-01-06 20:33:00,
2013-01-06 15:48:00,-999.0,-99.9,29.85,North,-999,-999.0,-999.0,-999,-99.99,,,0.03,weatherlink.com 1.10,2013-01-06 20:48:00,
2013-01-06 16:03:00,-999.0,-99.9,29.85,North,-999,-999.0,-999.0,-999,-99.99,,,0.03,weatherlink.com 1.10,2013-01-06 21:03:00,
2013-01-06 16:18:00,38.9,-99.9,29.85,NW,312,0.0,-999.0,-999,-99.99,,,0.03,weatherlink.com 1.10,2013-01-06 21:18:00,
2013-01-06 16:33:00,38.2,28.0,29.86,NW,312,0.0,-999.0,68,-99.99,,,0.03,weatherlink.com 1.10,2013-01-06 21:33:00,
2013-01-06 16:48:00,37.2,27.0,29.86,NW,312,0.0,-999.0,68,-99.99,,,0.03,weatherlink.com 1.10,2013-01-06 21:48:00,
2013-01-06 17:03:00,36.5,28.0,29.86,NW,312,0.0,-999.0,71,-99.99,,,0.03,weatherlink.com 1.10,2013-01-06 22:03:00,
2013-01-06 17:18:00,36.0,28.0,29.86,NW,312,0.0,-999.0,74,-99.99,,,0.03,weatherlink.com 1.10,2013-01-06 22:18:00,
2013-01-06 17:33:00,34.1,27.0,29.87,NW,312,0.0,-999.0,76,-99.99,,,0.03,weatherlink.com 1.10,2013-01-06 22:33:00,
2013-01-06 17:48:00,33.4,27.0,29.87,NW,312,0.0,-999.0,76,-99.99,,,0.03,weatherlink.com 1.10,2013-01-06 22:48:00,
2013-01-06 18:03:00,32.4,26.0,29.87,NW,312,0.0,-999.0,78,-99.99,,,0.03,weatherlink.com 1.10,2013-01-06 23:03:00,
2013-01-06 18:18:00,31.5,26.0,29.87,NW,312,0.0,-999.0,80,-99.99,,,0.03,weatherlink.com 1.10,2013-01-06 23:18:00,
2013-01-06 18:33:00,30.7,26.0,29.88,NW,312,0.0,-999.0,82,-99.99,,,0.03,weatherlink.com 1.10,2013-01-06 23:33:00,
2013-01-06 18:48:00,30.1,26.0,29.88,NW,312,0.0,-999.0,83,-99.99,,,0.03,weatherlink.com 1.10,2013-01-06 23:48:00,
2013-01-06 19:03:00,29.7,25.0,29.88,NW,312,0.0,-999.0,84,-99.99,,,0.03,weatherlink.com 1.10,2013-01-07 00:03:00,
2013-01-06 19:18:00,29.3,25.0,29.88,NW,312,0.0,-999.0,85,-99.99,,,0.03,weatherlink.com 1.10,2013-01-07 00:18:00,
2013-01-06 19:33:00,29.0,25.0,29.88,NW,312,0.0,-999.0,85,-99.99,,,0.03,weatherlink.com 1.10,2013-01-07 00:33:00,
2013-01-06 19:48:00,28.8,25.0,29.88,NW,312,0.0,-999.0,85,-99.99,,,0.03,weatherlink.com 1.10,2013-01-07 00:48:00,
2013-01-06 20:03:00,28.8,25.0,29.89,NW,312,0.0,-999.0,87,-99.99,,,0.03,weatherlink.com 1.10,2013-01-07 01:03:00,
2013-01-06 20:18:00,28.7,25.0,29.89,NW,312,0.0,-999.0,87,-99.99,,,0.03,weatherlink.com 1.10,2013-01-07 01:18:00,
2013-01-06 20:33:00,28.2,25.0,29.89,NW,312,0.0,-999.0,88,-99.99,,,0.03,weatherlink.com 1.10,2013-01-07 01:33:00,
2013-01-06 20:48:00,28.4,25.0,29.88,NW,312,0.0,-999.0,88,-99.99,,,0.03,weatherlink.com 1.10,2013-01-07 01:48:00,
2013-01-06 21:03:00,28.5,26.0,29.88,NW,312,0.0,-999.0,89,-99.99,,,0.03,weatherlink.com 1.10,2013-01-07 02:03:00,
2013-01-06 21:18:00,29.1,26.0,29.88,NW,312,0.0,-999.0,89,-99.99,,,0.03,weatherlink.com 1.10,2013-01-07 02:18:00,
2013-01-06 21:33:00,28.8,26.0,29.88,NW,312,0.0,-999.0,89,-99.99,,,0.03,weatherlink.com 1.10,2013-01-07 02:33:00,
2013-01-06 21:48:00,29.3,27.0,29.88,NW,312,0.0,-999.0,89,-99.99,,,0.03,weatherlink.com 1.10,2013-01-07 02:48:00,
2013-01-06 22:03:00,29.5,27.0,29.88,NW,312,0.0,-999.0,89,-99.99,,,0.03,weatherlink.com 1.10,2013-01-07 03:03:00,
2013-01-06 22:18:00,29.3,27.0,29.89,NW,312,0.0,-999.0,89,-99.99,,,0.03,weatherlink.com 1.10,2013-01-07 03:18:00,
2013-01-06 22:33:00,29.4,27.0,29.89,NW,312,0.0,-999.0,89,-99.99,,,0.03,weatherlink.com 1.10,2013-01-07 03:33:00,
2013-01-06 22:48:00,29.7,27.0,29.88,NW,312,0.0,-999.0,90,-99.99,,,0.03,weatherlink.com 1.10,2013-01-07 03:48:00,
2013-01-06 23:03:00,29.7,27.0,29.88,NW,312,0.0,-999.0,90,-99.99,,,0.03,weatherlink.com 1.10,2013-01-07 04:03:00,
2013-01-06 23:18:00,29.5,27.0,29.88,NW,312,0.0,-999.0,89,-99.99,,,0.03,weatherlink.com 1.10,2013-01-07 04:18:00,
2013-01-06 23:33:00,29.1,26.0,29.87,NW,312,0.0,-999.0,89,-99.99,,,0.03,weatherlink.com 1.10,2013-01-07 04:33:00,
2013-01-06 23:48:00,29.3,27.0,29.87,NW,312,0.0,-999.0,90,-99.99,,,0.03,weatherlink.com 1.10,2013-01-07 04:48:00,